createdAt,value
2019-02-12T00:00:28.979Z,6.64
2019-02-12T00:11:47.825Z,6.65
2019-02-12T00:12:42.649Z,6.63
2019-02-12T00:15:28.704Z,6.79
2019-02-12T00:16:21.821Z,6.83
2019-02-12T00:17:23.066Z,6.91
2019-02-12T00:18:18.283Z,6.83
2019-02-12T00:19:12.340Z,6.83
2019-02-12T00:21:22.489Z,6.89
2019-02-12T00:24:54.455Z,6.83
2019-02-12T00:28:15.717Z,6.86
2019-02-12T00:29:14.146Z,6.87
2019-02-12T00:30:05.031Z,6.86
2019-02-12T00:35:05.816Z,7.09
2019-02-12T00:36:01.752Z,7
2019-02-12T00:36:51.273Z,6.94
2019-02-12T00:38:48.947Z,6.97
2019-02-12T00:43:02.113Z,7.18
2019-02-12T00:43:54.992Z,7.18
2019-02-12T00:54:25.487Z,7.05
2019-02-12T00:59:20.657Z,6.91
2019-02-12T01:06:06.077Z,6.64
2019-02-12T01:06:59.501Z,6.71
2019-02-12T01:08:01.216Z,6.71
2019-02-12T01:09:02.219Z,6.55
2019-02-12T01:10:06.634Z,6.69
2019-02-12T01:11:09.954Z,6.71
2019-02-12T01:12:10.604Z,6.64
2019-02-12T01:13:10.901Z,6.63
2019-02-12T01:14:20.971Z,6.83
2019-02-12T01:18:32.681Z,6.87
2019-02-12T01:22:55.108Z,6.99
2019-02-12T01:26:44.594Z,6.89
2019-02-12T01:27:36.032Z,6.87
2019-02-12T01:28:28.487Z,6.9
2019-02-12T01:29:18.000Z,6.81
2019-02-12T01:31:27.461Z,6.86
2019-02-12T01:32:20.130Z,6.86
2019-02-12T01:33:13.667Z,6.82
2019-02-12T01:36:36.735Z,7.08
2019-02-12T01:40:52.528Z,7.24
2019-02-12T01:44:02.642Z,7.23
2019-02-12T01:44:55.004Z,7.14
2019-02-12T01:45:44.358Z,7.21
2019-02-12T01:46:38.388Z,7.19
2019-02-12T01:47:28.833Z,7.12
2019-02-12T01:48:21.379Z,7.14
2019-02-12T01:49:12.410Z,7.15
2019-02-12T01:50:03.948Z,7.16
2019-02-12T01:50:53.062Z,7.15
2019-02-12T01:51:52.267Z,7.14
2019-02-12T01:52:44.825Z,7.19
2019-02-12T01:53:40.375Z,7.08
2019-02-12T01:54:28.966Z,7.08
2019-02-12T01:55:17.653Z,6.93
2019-02-12T02:07:17.563Z,6.99
2019-02-12T02:08:14.026Z,6.83
2019-02-12T02:09:05.451Z,6.87
2019-02-12T02:12:19.376Z,6.73
2019-02-12T02:13:14.998Z,6.87
2019-02-12T02:14:02.762Z,6.83
2019-02-12T02:16:27.905Z,6.94
2019-02-12T02:17:22.217Z,6.93
2019-02-12T02:18:17.067Z,6.9
2019-02-12T02:19:08.472Z,6.78
2019-02-12T02:21:10.329Z,6.89
2019-02-12T02:22:52.072Z,6.82
2019-02-12T02:23:33.337Z,6.9
2019-02-12T02:25:38.570Z,6.83
2019-02-12T02:26:28.611Z,6.68
2019-02-12T02:27:17.234Z,6.81
2019-02-12T02:28:05.798Z,6.72
2019-02-12T02:28:57.611Z,6.64
2019-02-12T02:29:48.573Z,6.71
2019-02-12T02:33:23.107Z,6.54
2019-02-12T02:34:20.837Z,6.6
2019-02-12T02:35:13.451Z,6.54
2019-02-12T02:36:04.054Z,6.55
2019-02-12T02:36:55.792Z,6.53
2019-02-12T02:37:47.167Z,6.53
2019-02-12T02:38:36.331Z,6.54
2019-02-12T02:39:32.305Z,6.64
2019-02-12T02:40:26.367Z,6.71
2019-02-12T02:45:45.186Z,6.99
2019-02-12T02:50:45.067Z,6.94
2019-02-12T02:51:52.405Z,6.93
2019-02-12T02:57:10.010Z,6.73
2019-02-12T03:03:07.609Z,6.76
2019-02-12T03:03:57.483Z,6.76
2019-02-12T03:17:06.302Z,6.83
2019-02-12T03:29:26.254Z,6.53
2019-02-12T03:31:03.080Z,6.55
2019-02-12T03:31:56.916Z,6.46
2019-02-12T03:32:49.714Z,6.38
2019-02-12T03:33:40.879Z,6.28
2019-02-12T03:34:29.811Z,6.27
2019-02-12T03:35:22.529Z,6.2
2019-02-12T03:36:24.344Z,6.17
2019-02-12T03:38:06.337Z,6.19
2019-02-12T03:39:00.917Z,6.25
2019-02-12T03:39:58.265Z,6.24
2019-02-12T03:40:56.762Z,6.32
2019-02-12T03:41:53.180Z,6.38
2019-02-12T03:42:48.343Z,6.3
2019-02-12T03:47:18.564Z,6.53
2019-02-12T03:48:12.275Z,6.55
2019-02-12T03:56:19.991Z,6.93
2019-02-12T03:57:16.202Z,6.91
2019-02-12T03:59:47.899Z,7.05
2019-02-12T04:00:41.185Z,6.94
2019-02-12T04:01:37.974Z,6.93
2019-02-12T04:19:30.042Z,7.07
2019-02-12T04:20:25.449Z,6.96
2019-02-12T04:21:30.955Z,6.76
2019-02-12T04:22:34.942Z,6.63
2019-02-12T04:23:43.103Z,6.71
2019-02-12T04:24:38.352Z,6.65
2019-02-12T04:25:32.737Z,6.57
2019-02-12T04:26:30.861Z,6.53
2019-02-12T05:06:26.319Z,5.24
2019-02-12T05:07:19.849Z,5.35
2019-02-12T05:08:11.849Z,5.33
2019-02-12T05:09:05.706Z,5.32
2019-02-12T05:09:58.055Z,5.4
2019-02-12T05:10:51.175Z,5.35
2019-02-12T05:11:44.195Z,5.37
2019-02-12T05:12:37.124Z,5.42
2019-02-12T05:13:30.414Z,5.45
2019-02-12T05:14:24.004Z,5.48
2019-02-12T05:15:17.508Z,5.47
2019-02-12T05:16:11.203Z,5.62
2019-02-12T05:17:05.433Z,5.66
2019-02-12T05:18:11.771Z,5.69
2019-02-12T05:19:11.750Z,5.63
2019-02-12T05:20:09.087Z,5.75
2019-02-12T05:21:11.371Z,5.83
2019-02-12T05:22:09.627Z,5.78
2019-02-12T05:23:07.050Z,5.87
2019-02-12T05:24:06.349Z,5.78
2019-02-12T05:25:14.933Z,5.73
2019-02-12T05:26:13.347Z,5.78
2019-02-12T05:27:12.760Z,5.84
2019-02-12T05:28:08.075Z,5.77
2019-02-12T05:29:02.581Z,5.67
2019-02-12T05:29:56.911Z,5.6
2019-02-12T05:30:56.050Z,5.69
2019-02-12T05:31:50.435Z,5.67
2019-02-12T05:32:47.676Z,5.66
2019-02-12T05:33:44.090Z,5.66
2019-02-12T05:34:40.629Z,5.63
2019-02-12T05:35:35.901Z,5.58
2019-02-12T05:36:30.754Z,5.59
2019-02-12T05:37:25.885Z,5.56
2019-02-12T05:38:23.088Z,5.52
2019-02-12T05:39:18.819Z,5.4
2019-02-12T05:40:16.142Z,5.48
2019-02-12T05:41:11.627Z,5.44
2019-02-12T05:42:07.755Z,5.38
2019-02-12T05:45:13.103Z,5.59
2019-02-12T05:46:50.100Z,5.56
2019-02-12T05:52:14.065Z,5.84
2019-02-12T05:53:18.308Z,5.77
2019-02-12T05:54:22.665Z,5.87
2019-02-12T06:00:19.091Z,6.13
2019-02-12T06:03:19.708Z,6.05
2019-02-12T06:06:33.877Z,5.9
2019-02-12T06:07:32.409Z,5.8
2019-02-12T06:12:33.977Z,6.1
2019-02-12T06:13:32.814Z,6.01
2019-02-12T06:14:29.994Z,6.06
2019-02-12T06:15:49.914Z,5.99
2019-02-12T06:16:48.520Z,5.99
2019-02-12T06:17:44.766Z,6.02
2019-02-12T06:27:16.229Z,5.84
2019-02-12T06:28:21.910Z,5.88
2019-02-12T06:29:14.336Z,5.93
2019-02-12T06:30:10.500Z,5.92
2019-02-12T06:31:10.886Z,6.02
2019-02-12T06:32:53.155Z,6.01
2019-02-12T06:33:51.290Z,5.99
2019-02-12T06:35:01.559Z,6.02
2019-02-12T06:45:34.548Z,5.96
2019-02-12T06:51:28.121Z,5.84
2019-02-12T06:52:20.761Z,5.78
2019-02-12T06:53:17.814Z,5.75
2019-02-12T06:54:12.342Z,5.78
2019-02-12T06:55:53.758Z,5.85
2019-02-12T06:56:56.010Z,5.7
2019-02-12T06:57:51.507Z,5.73
2019-02-12T06:59:48.064Z,5.77
2019-02-12T07:00:41.466Z,5.75
2019-02-12T07:01:34.879Z,5.77
2019-02-12T07:02:29.196Z,5.77
2019-02-12T07:03:24.362Z,5.74
2019-02-12T07:04:18.268Z,5.77
2019-02-12T07:06:33.723Z,5.7
2019-02-12T07:07:29.907Z,5.66
2019-02-12T07:08:25.859Z,5.66
2019-02-12T07:11:10.728Z,5.74
2019-02-12T07:13:27.030Z,5.74
2019-02-12T07:14:13.330Z,5.74
2019-02-12T07:14:53.718Z,5.78
2019-02-12T07:15:35.027Z,5.73
2019-02-12T07:16:15.409Z,5.78
2019-02-12T07:16:55.786Z,5.74
2019-02-12T07:17:36.162Z,5.73
2019-02-12T07:18:19.669Z,5.78
2019-02-12T07:19:01.132Z,5.75
2019-02-12T07:19:41.509Z,5.77
2019-02-12T07:20:23.487Z,5.69
2019-02-12T07:21:04.535Z,5.66
2019-02-12T07:21:45.006Z,5.67
2019-02-12T07:22:25.623Z,5.75
2019-02-12T07:23:07.111Z,5.69
2019-02-12T07:23:50.186Z,5.75
2019-02-12T07:24:30.990Z,5.73
2019-02-12T07:25:11.484Z,5.77
2019-02-12T07:25:51.989Z,5.74
2019-02-12T07:26:32.673Z,5.81
2019-02-12T07:27:15.041Z,5.87
2019-02-12T07:27:55.636Z,5.85
2019-02-12T07:28:37.176Z,5.88
2019-02-12T07:29:19.756Z,5.96
2019-02-12T07:30:00.423Z,5.99
2019-02-12T07:30:45.807Z,5.96
2019-02-12T07:31:26.695Z,6.01
2019-02-12T07:36:22.223Z,6.57
2019-02-12T07:37:26.539Z,6.54
2019-02-12T07:56:12.966Z,8.12
2019-02-12T07:57:18.384Z,7.91
2019-02-12T07:58:17.407Z,8
2019-02-12T07:59:14.461Z,8.02
2019-02-12T08:00:11.090Z,7.94
2019-02-12T08:02:56.828Z,7.99
2019-02-12T08:06:03.667Z,8.06
2019-02-12T08:06:58.955Z,8.04
2019-02-12T08:08:05.271Z,8.21
2019-02-12T08:16:23.776Z,8.76
2019-02-12T08:30:40.643Z,8.55
2019-02-12T08:38:39.272Z,8.94
2019-02-12T08:41:00.674Z,8.91
2019-02-12T08:41:57.623Z,9.08
2019-02-12T08:47:18.224Z,9.19
2019-02-12T08:49:21.363Z,9.24
2019-02-12T08:50:00.293Z,9.3
2019-02-12T08:50:42.780Z,9.32
2019-02-12T08:51:23.254Z,9.53
2019-02-12T08:52:06.268Z,9.48
2019-02-12T08:52:47.078Z,9.44
2019-02-12T08:53:30.239Z,9.52
2019-02-12T08:55:17.175Z,9.48
2019-02-12T08:58:02.607Z,9.52
2019-02-12T09:04:06.075Z,9.58
2019-02-12T09:12:11.071Z,9.71
2019-02-12T09:17:43.030Z,9.56
2019-02-12T09:18:35.788Z,9.52
2019-02-12T09:19:19.113Z,9.65
2019-02-12T09:20:09.564Z,9.62
2019-02-12T09:31:20.401Z,9.34
2019-02-12T09:42:33.242Z,9.37
2019-02-12T09:44:25.394Z,9.3
2019-02-12T10:02:01.993Z,9.5
2019-02-12T10:03:02.040Z,9.56
2019-02-12T10:04:06.762Z,9.59
2019-02-12T10:04:49.136Z,9.68
2019-02-12T10:05:32.715Z,9.77
2019-02-12T10:06:21.668Z,9.83
2019-02-12T10:07:29.509Z,9.83
2019-02-12T10:08:21.015Z,9.95
2019-02-12T11:23:05.356Z,10.31
2019-02-12T11:23:53.180Z,10.38
2019-02-12T11:24:40.541Z,10.32
2019-02-12T11:25:27.538Z,10.28
2019-02-12T11:26:10.112Z,10.32
2019-02-12T11:26:56.067Z,10.36
2019-02-12T11:27:47.415Z,10.38
2019-02-12T11:28:36.010Z,10.44
2019-02-12T11:36:39.413Z,10.68
2019-02-12T11:37:23.419Z,10.72
2019-02-12T11:38:13.378Z,10.7
2019-02-12T11:39:13.195Z,10.87
2019-02-12T11:39:54.573Z,10.76
2019-02-12T11:40:35.472Z,10.73
2019-02-12T11:41:24.192Z,10.78
2019-02-12T11:42:04.686Z,10.72
2019-02-12T11:42:50.459Z,10.69
2019-02-12T11:43:38.349Z,10.7
2019-02-12T11:44:23.924Z,10.78
2019-02-12T11:45:08.221Z,10.73
2019-02-12T11:45:48.592Z,10.72
2019-02-12T11:46:32.962Z,10.86
2019-02-12T11:47:18.347Z,10.91
2019-02-12T11:48:06.444Z,10.83
2019-02-12T11:48:49.498Z,10.72
2019-02-12T11:49:32.288Z,10.73
2019-02-12T11:50:14.737Z,10.81
2019-02-12T11:50:57.314Z,10.86
2019-02-12T11:51:39.381Z,10.81
2019-02-12T11:52:23.190Z,10.86
2019-02-12T11:53:10.838Z,10.84
2019-02-12T11:53:54.532Z,10.91
2019-02-12T11:54:43.531Z,10.88
2019-02-12T11:55:31.676Z,10.87
2019-02-12T11:57:24.784Z,10.91
2019-02-12T11:58:28.352Z,10.69
2019-02-12T11:59:24.341Z,10.66
2019-02-12T12:03:42.778Z,11.08
2019-02-12T12:04:45.241Z,11.2
2019-02-12T12:05:56.518Z,11.12
2019-02-12T12:06:50.610Z,11.03
2019-02-12T12:07:44.108Z,11.11
2019-02-12T12:08:37.654Z,11.2
2019-02-12T12:09:34.749Z,11.13
2019-02-12T12:10:38.711Z,11.19
2019-02-12T12:11:32.004Z,11.02
2019-02-12T12:12:24.101Z,11.11
2019-02-12T12:13:24.216Z,11.12
2019-02-12T12:14:18.407Z,11.12
2019-02-12T12:15:13.770Z,11.16
2019-02-12T12:16:08.091Z,11.2
2019-02-12T12:17:02.519Z,11.16
2019-02-12T12:17:56.374Z,11.17
2019-02-12T12:18:48.060Z,11.12
2019-02-12T12:19:34.056Z,11.11
2019-02-12T12:20:18.861Z,11.03
2019-02-12T12:21:22.673Z,11.01
2019-02-12T12:22:02.435Z,11.09
2019-02-12T12:22:44.279Z,11.09
2019-02-12T12:32:33.321Z,11.6
2019-02-12T12:35:10.611Z,11.59
2019-02-12T12:36:17.628Z,11.53
2019-02-12T12:37:11.749Z,11.56
2019-02-12T12:38:08.370Z,11.62
2019-02-12T12:39:03.041Z,11.64
2019-02-12T12:39:55.458Z,11.72
2019-02-12T12:40:51.654Z,11.66
2019-02-12T12:41:52.107Z,11.69
2019-02-12T12:42:46.820Z,11.81
2019-02-12T12:43:38.986Z,11.72
2019-02-12T12:44:34.528Z,11.81
2019-02-12T12:45:28.632Z,11.66
2019-02-12T12:46:25.130Z,11.74
2019-02-12T12:47:22.216Z,11.82
2019-02-12T12:48:23.235Z,11.9
2019-02-12T12:49:17.321Z,11.9
2019-02-12T12:50:23.047Z,12.01
2019-02-12T12:51:24.755Z,11.88
2019-02-12T12:52:20.700Z,12.03
2019-02-12T12:53:13.521Z,12.03
2019-02-12T12:54:08.119Z,12.11
2019-02-12T12:55:08.412Z,12.12
2019-02-12T12:56:02.785Z,12.08
2019-02-12T12:56:57.288Z,12.25
2019-02-12T12:58:37.958Z,12.29
2019-02-12T12:59:35.393Z,12.12
2019-02-12T13:00:43.437Z,12.15
2019-02-12T13:02:36.836Z,12.26
2019-02-12T13:03:53.799Z,12.34
2019-02-12T13:10:11.141Z,13.47
2019-02-12T13:13:23.072Z,14.04
2019-02-12T13:14:19.034Z,13.94
2019-02-12T13:15:28.009Z,13.88
2019-02-12T13:16:22.558Z,13.94
2019-02-12T13:17:20.095Z,13.98
2019-02-12T13:18:15.950Z,14.13
2019-02-12T13:20:23.822Z,14.24
2019-02-12T13:22:22.881Z,14.13
2019-02-12T13:23:22.558Z,13.98
2019-02-12T13:24:24.381Z,13.87
2019-02-12T13:25:23.621Z,13.87
2019-02-12T13:27:25.738Z,13.86
2019-02-12T13:28:23.449Z,13.88
2019-02-12T13:29:23.218Z,13.83
2019-02-12T13:30:34.700Z,13.9
2019-02-12T13:31:34.071Z,13.98
2019-02-12T13:32:31.959Z,13.99
2019-02-12T13:33:27.436Z,14.11
2019-02-12T13:34:19.645Z,14.01
2019-02-12T13:35:14.836Z,14.02
2019-02-12T13:36:09.823Z,13.94
2019-02-12T13:37:05.327Z,14.02
2019-02-12T13:38:04.051Z,13.98
2019-02-12T13:38:58.075Z,14.08
2019-02-12T13:39:55.004Z,14.17
2019-02-12T13:40:50.561Z,14.24
2019-02-12T13:43:33.746Z,14.17
2019-02-12T13:44:33.980Z,14.29
2019-02-12T13:45:34.312Z,14.3
2019-02-12T13:46:31.938Z,14.41
2019-02-12T13:47:27.791Z,14.52
2019-02-12T13:48:20.052Z,14.61
2019-02-12T13:49:15.918Z,14.6
2019-02-12T13:50:13.873Z,14.39
2019-02-12T13:51:25.095Z,14.41
2019-02-12T13:52:19.157Z,14.44
2019-02-12T13:53:17.217Z,14.45
2019-02-12T13:54:14.208Z,14.44
2019-02-12T13:55:17.125Z,14.45
2019-02-12T13:56:10.397Z,14.41
2019-02-12T13:57:07.953Z,14.52
2019-02-12T13:58:07.975Z,14.59
2019-02-12T13:59:05.087Z,14.61
2019-02-12T14:00:05.206Z,14.6
2019-02-12T14:01:59.575Z,14.39
2019-02-12T14:03:07.189Z,14.24
2019-02-12T14:04:03.708Z,14.38
2019-02-12T14:05:02.439Z,14.2
2019-02-12T14:06:46.726Z,14.29
2019-02-12T14:09:13.011Z,14.3
2019-02-12T14:11:18.616Z,14.3
2019-02-12T14:12:54.549Z,14.31
2019-02-12T14:14:09.866Z,14.11
2019-02-12T14:15:04.954Z,14.16
2019-02-12T14:16:01.999Z,14.21
2019-02-12T14:16:59.928Z,14.17
2019-02-12T14:17:55.993Z,14.11
2019-02-12T14:18:47.615Z,14.13
2019-02-12T14:21:02.435Z,14.09
2019-02-12T14:21:43.197Z,14.09
2019-02-12T14:22:46.874Z,14.16
2019-02-12T14:23:27.539Z,14.09
2019-02-12T14:24:16.501Z,14.12
2019-02-12T14:24:57.634Z,14.02
2019-02-12T14:26:02.688Z,13.88
2019-02-12T14:26:45.934Z,13.87
2019-02-12T14:27:28.238Z,13.94
2019-02-12T14:28:12.623Z,13.88
2019-02-12T14:29:11.899Z,13.83
2019-02-12T14:29:56.468Z,13.75
2019-02-12T14:30:38.831Z,13.75
2019-02-12T14:31:19.301Z,13.73
2019-02-12T14:32:05.370Z,13.66
2019-02-12T14:32:45.853Z,13.76
2019-02-12T14:33:32.150Z,13.8
2019-02-12T14:34:15.885Z,13.87
2019-02-12T14:34:56.874Z,13.88
2019-02-12T14:35:37.442Z,13.86
2019-02-12T14:36:20.463Z,14.01
2019-02-12T14:37:00.860Z,13.96
2019-02-12T14:37:45.551Z,13.94
2019-02-12T14:38:29.888Z,13.96
2019-02-12T14:39:16.957Z,13.93
2019-02-12T14:39:59.839Z,13.94
2019-02-12T14:41:50.936Z,13.93
2019-02-12T14:42:47.453Z,13.9
2019-02-12T14:43:40.567Z,13.93
2019-02-12T14:44:37.079Z,13.84
2019-02-12T14:45:32.019Z,13.72
2019-02-12T14:46:27.013Z,13.71
2019-02-12T14:47:23.676Z,13.53
2019-02-12T14:48:19.472Z,13.61
2019-02-12T14:49:19.619Z,13.51
2019-02-12T14:50:17.092Z,13.38
2019-02-12T14:51:25.023Z,13.24
2019-02-12T14:52:25.707Z,13.27
2019-02-12T14:53:26.166Z,13.17
2019-02-12T14:54:25.058Z,13.1
2019-02-12T14:55:17.437Z,13.21
2019-02-12T14:56:31.126Z,13.17
2019-02-12T14:57:28.688Z,13.17
2019-02-12T14:58:38.405Z,13.1
2019-02-12T14:59:58.145Z,13.13
2019-02-12T15:00:55.652Z,13.1
2019-02-12T15:01:56.366Z,12.98
2019-02-12T15:02:58.369Z,12.96
2019-02-12T15:03:57.980Z,12.73
2019-02-12T15:06:13.797Z,12.61
2019-02-12T15:06:54.089Z,12.54
2019-02-12T15:07:34.800Z,12.61
2019-02-12T15:08:15.289Z,12.61
2019-02-12T15:08:55.983Z,12.59
2019-02-12T15:09:39.418Z,12.56
2019-02-12T15:10:19.414Z,12.48
2019-02-12T15:11:00.710Z,12.54
2019-02-12T15:11:43.746Z,12.63
2019-02-12T15:14:03.962Z,12.55
2019-02-12T15:14:59.337Z,12.55
2019-02-12T15:15:58.264Z,12.58
2019-02-12T15:16:54.187Z,12.56
2019-02-12T15:17:53.359Z,12.59
2019-02-12T15:18:49.976Z,12.61
2019-02-12T15:20:07.232Z,12.56
2019-02-12T15:21:03.908Z,12.44
2019-02-12T15:21:59.672Z,12.46
2019-02-12T15:22:57.891Z,12.43
2019-02-12T15:23:54.078Z,12.43
2019-02-12T15:25:11.031Z,12.44
2019-02-12T15:27:28.121Z,12.38
2019-02-12T15:28:12.453Z,12.36
2019-02-12T15:28:58.615Z,12.29
2019-02-12T15:29:49.299Z,12.33
2019-02-12T15:30:29.420Z,12.22
2019-02-12T15:44:25.340Z,12.04
2019-02-12T15:50:11.221Z,12.19
2019-02-12T15:51:10.550Z,12.05
2019-02-12T15:52:08.364Z,12.15
2019-02-12T15:53:13.044Z,12.15
2019-02-12T15:54:09.956Z,12.08
2019-02-12T15:55:14.649Z,12.13
2019-02-12T15:56:15.216Z,12.08
2019-02-12T15:57:14.564Z,12.03
2019-02-12T15:58:14.275Z,11.96
2019-02-12T15:59:16.231Z,11.94
2019-02-12T16:00:15.203Z,11.96
2019-02-12T16:01:10.622Z,12.01
2019-02-12T16:02:16.040Z,11.82
2019-02-12T16:03:20.505Z,11.75
2019-02-12T16:04:19.615Z,11.67
2019-02-12T16:05:21.362Z,11.56
2019-02-12T16:07:45.129Z,11.38
2019-02-12T16:09:41.650Z,11.35
2019-02-12T16:11:33.302Z,11.39
2019-02-12T16:12:32.658Z,11.42
2019-02-12T16:13:26.531Z,11.46
2019-02-12T16:14:23.716Z,11.57
2019-02-12T16:15:31.317Z,11.36
2019-02-12T16:16:24.665Z,11.36
2019-02-12T16:17:20.043Z,11.31
2019-02-12T16:18:15.348Z,11.33
2019-02-12T16:19:14.699Z,11.16
2019-02-12T16:20:10.065Z,11.11
2019-02-12T16:21:04.023Z,11.11
2019-02-12T16:22:44.673Z,11.11
2019-02-12T16:23:37.613Z,11.09
2019-02-12T16:24:34.277Z,11.08
2019-02-12T16:25:28.398Z,11.06
2019-02-12T16:26:22.828Z,11.06
2019-02-12T16:27:44.627Z,11.03
2019-02-12T16:29:43.156Z,11.06
2019-02-12T16:30:40.000Z,11.08
2019-02-12T16:31:38.467Z,10.98
2019-02-12T17:07:59.368Z,8.86
2019-02-12T17:08:58.796Z,8.73
2019-02-12T17:09:58.709Z,8.68
2019-02-12T17:10:55.986Z,8.68
2019-02-12T17:11:55.007Z,8.6
2019-02-12T17:12:54.556Z,8.7
2019-02-12T17:13:50.854Z,8.55
2019-02-12T17:14:50.947Z,8.67
2019-02-12T17:15:55.845Z,8.57
2019-02-12T17:16:58.944Z,8.57
2019-02-12T17:19:02.568Z,8.5
2019-02-12T17:19:56.000Z,8.61
2019-02-12T17:22:14.063Z,8.57
2019-02-12T17:25:36.254Z,8.65
2019-02-12T17:26:36.844Z,8.61
2019-02-12T17:27:35.897Z,8.61
2019-02-12T17:28:41.264Z,8.47
2019-02-12T17:29:39.049Z,8.54
2019-02-12T17:30:40.217Z,8.58
2019-02-12T17:31:42.173Z,8.7
2019-02-12T17:32:39.723Z,8.7
2019-02-12T17:33:33.532Z,8.7
2019-02-12T17:34:32.772Z,8.75
2019-02-12T17:37:12.673Z,8.7
2019-02-12T17:38:15.120Z,8.7
2019-02-12T17:39:10.450Z,8.73
2019-02-12T17:40:07.495Z,8.76
2019-02-12T17:42:28.407Z,8.75
2019-02-12T17:43:21.163Z,8.73
2019-02-12T17:44:14.720Z,8.78
2019-02-12T17:45:08.583Z,8.71
2019-02-12T17:46:08.178Z,8.68
2019-02-12T17:47:04.045Z,8.71
2019-02-12T17:47:59.917Z,8.68
2019-02-12T17:48:56.388Z,8.54
2019-02-12T17:49:51.176Z,8.58
2019-02-12T17:50:46.117Z,8.54
2019-02-12T17:51:41.024Z,8.47
2019-02-12T17:52:34.005Z,8.42
2019-02-12T17:53:29.414Z,8.37
2019-02-12T17:54:26.207Z,8.29
2019-02-12T17:55:22.604Z,8.36
2019-02-12T17:56:24.542Z,8.39
2019-02-12T17:57:13.664Z,8.25
2019-02-12T17:58:07.239Z,8.32
2019-02-12T17:59:01.577Z,8.2
2019-02-12T17:59:58.811Z,8.21
2019-02-12T18:00:57.398Z,8.2
2019-02-12T18:01:49.424Z,8.18
2019-02-12T18:02:45.347Z,8.12
2019-02-12T18:03:37.820Z,8.04
2019-02-12T18:04:31.676Z,8.06
2019-02-12T18:05:24.964Z,8
2019-02-12T18:06:17.527Z,7.94
2019-02-12T18:07:09.421Z,7.99
2019-02-12T18:08:03.092Z,7.99
2019-02-12T18:08:55.476Z,7.85
2019-02-12T18:09:47.765Z,7.82
2019-02-12T18:10:42.068Z,7.81
2019-02-12T18:11:37.713Z,7.76
2019-02-12T18:12:30.267Z,7.69
2019-02-12T18:13:23.176Z,7.58
2019-02-12T18:14:14.049Z,7.57
2019-02-12T18:15:06.375Z,7.5
2019-02-12T18:16:00.197Z,7.51
2019-02-12T18:16:52.441Z,7.45
2019-02-12T18:17:45.382Z,7.58
2019-02-12T18:18:37.033Z,7.48
2019-02-12T18:19:29.491Z,7.51
2019-02-12T18:20:26.473Z,7.48
2019-02-12T18:21:15.545Z,7.45
2019-02-12T18:22:09.083Z,7.34
2019-02-12T18:23:01.853Z,7.36
2019-02-12T18:23:54.134Z,7.33
2019-02-12T18:24:46.104Z,7.18
2019-02-12T18:25:39.872Z,7.12
2019-02-12T18:26:33.241Z,6.99
2019-02-12T18:27:25.643Z,7.05
2019-02-12T18:28:17.919Z,6.89
2019-02-12T18:29:10.409Z,6.87
2019-02-12T18:30:03.093Z,6.91
2019-02-12T18:30:55.480Z,6.91
2019-02-12T18:31:48.310Z,6.83
2019-02-12T18:32:40.580Z,6.83
2019-02-12T18:33:33.509Z,6.79
2019-02-12T18:34:25.601Z,6.78
2019-02-12T18:35:18.850Z,6.64
2019-02-12T18:36:10.949Z,6.54
2019-02-12T18:37:03.525Z,6.6
2019-02-12T18:37:55.951Z,6.48
2019-02-12T18:38:48.062Z,6.61
2019-02-12T18:39:40.539Z,6.53
2019-02-12T18:40:33.484Z,6.6
2019-02-12T18:41:25.502Z,6.54
2019-02-12T18:42:18.027Z,6.51
2019-02-12T18:43:13.745Z,6.45
2019-02-12T18:44:05.874Z,6.51
2019-02-12T18:44:58.167Z,6.53
2019-02-12T18:45:50.786Z,6.42
2019-02-12T18:47:59.943Z,6.33
2019-02-12T18:48:51.988Z,6.36
2019-02-12T18:49:44.123Z,6.3
2019-02-12T18:50:37.818Z,6.25
2019-02-12T18:51:30.292Z,6.28
2019-02-12T18:52:22.783Z,6.3
2019-02-12T18:53:15.318Z,6.36
2019-02-12T18:54:07.949Z,6.3
2019-02-12T18:55:00.368Z,6.38
2019-02-12T18:55:53.461Z,6.24
2019-02-12T18:56:47.372Z,6.33
2019-02-12T18:57:39.515Z,6.36
2019-02-12T18:58:31.839Z,6.45
2019-02-12T18:59:24.236Z,6.4
2019-02-12T19:00:17.374Z,6.46
2019-02-12T19:01:10.432Z,6.38
2019-02-12T19:02:02.936Z,6.42
2019-02-12T19:02:55.084Z,6.45
2019-02-12T19:03:47.881Z,6.33
2019-02-12T19:04:40.500Z,6.38
2019-02-12T19:05:33.019Z,6.36
2019-02-12T19:06:25.349Z,6.3
2019-02-12T19:07:17.583Z,6.35
2019-02-12T19:08:10.178Z,6.3
2019-02-12T19:09:02.729Z,6.17
2019-02-12T19:09:55.238Z,6.1
2019-02-12T19:10:49.130Z,6.17
2019-02-12T19:11:48.500Z,6.14
2019-02-12T19:12:34.963Z,6.16
2019-02-12T19:13:27.584Z,6.08
2019-02-12T19:14:20.406Z,6.16
2019-02-12T19:15:14.945Z,6.19
2019-02-12T19:16:09.056Z,6.08
2019-02-12T19:17:01.669Z,6.08
2019-02-12T19:17:54.348Z,6.1
2019-02-12T19:18:47.418Z,6.14
2019-02-12T19:19:40.795Z,6.1
2019-02-12T19:20:32.413Z,6.21
2019-02-12T19:21:27.179Z,6.21
2019-02-12T19:22:19.662Z,6.27
2019-02-12T19:23:12.077Z,6.25
2019-02-12T19:24:04.287Z,6.28
2019-02-12T19:24:57.890Z,6.25
2019-02-12T19:25:50.633Z,6.27
2019-02-12T19:26:49.848Z,6.32
2019-02-12T19:27:38.214Z,6.28
2019-02-12T19:28:30.847Z,6.3
2019-02-12T19:29:23.052Z,6.32
2019-02-12T19:30:16.135Z,6.28
2019-02-12T19:31:07.134Z,6.21
2019-02-12T19:32:01.449Z,6.28
2019-02-12T19:32:54.269Z,6.16
2019-02-12T19:33:46.455Z,6.21
2019-02-12T19:34:40.098Z,6.25
2019-02-12T19:35:32.168Z,6.17
2019-02-12T19:36:25.701Z,6.13
2019-02-12T19:37:20.807Z,6.11
2019-02-12T19:38:14.194Z,6.19
2019-02-12T19:39:06.532Z,6.17
2019-02-12T19:39:59.850Z,6.11
2019-02-12T19:40:51.770Z,6.16
2019-02-12T19:41:45.816Z,6.1
2019-02-12T19:42:38.029Z,6.05
2019-02-12T19:43:31.778Z,6.03
2019-02-12T19:44:23.945Z,6.1
2019-02-12T19:45:16.822Z,6.03
2019-02-12T19:46:11.046Z,5.99
2019-02-12T19:47:03.825Z,5.96
2019-02-12T19:47:56.189Z,5.93
2019-02-12T19:48:48.869Z,5.95
2019-02-12T19:49:43.302Z,5.93
2019-02-12T19:50:36.804Z,5.93
2019-02-12T19:51:29.256Z,5.85
2019-02-12T19:52:21.680Z,5.87
2019-02-12T19:53:14.680Z,5.85
2019-02-12T19:54:07.979Z,5.93
2019-02-12T19:55:00.126Z,5.83
2019-02-12T19:55:53.411Z,5.83
2019-02-12T19:56:46.090Z,5.84
2019-02-12T19:57:39.688Z,5.78
2019-02-12T19:58:33.546Z,5.75
2019-02-12T19:59:26.430Z,5.75
2019-02-12T20:00:18.556Z,5.81
2019-02-12T20:01:10.628Z,5.88
2019-02-12T20:02:03.117Z,5.99
2019-02-12T20:02:55.343Z,6.05
2019-02-12T20:03:48.895Z,6.05
2019-02-12T20:04:41.875Z,6.08
2019-02-12T20:05:35.289Z,6.02
2019-02-12T20:06:27.391Z,6.05
2019-02-12T20:07:20.126Z,5.99
2019-02-12T20:08:12.321Z,5.92
2019-02-12T20:09:05.025Z,5.92
2019-02-12T20:09:57.444Z,5.99
2019-02-12T20:10:49.781Z,5.9
2019-02-12T20:11:42.047Z,5.9
2019-02-12T20:12:34.945Z,5.85
2019-02-12T20:13:27.492Z,5.87
2019-02-12T20:14:19.878Z,5.87
2019-02-12T20:15:12.432Z,5.85
2019-02-12T20:16:04.863Z,5.87
2019-02-12T20:16:57.968Z,5.83
2019-02-12T20:17:50.426Z,5.88
2019-02-12T20:18:42.835Z,5.87
2019-02-12T20:19:35.297Z,5.93
2019-02-12T20:20:27.880Z,5.88
2019-02-12T20:21:20.100Z,5.9
2019-02-12T20:22:12.480Z,5.87
2019-02-12T20:23:05.809Z,5.9
2019-02-12T20:23:58.235Z,5.87
2019-02-12T20:24:50.714Z,5.85
2019-02-12T20:25:43.160Z,5.77
2019-02-12T20:26:35.243Z,5.78
2019-02-12T20:27:35.510Z,5.73
2019-02-12T20:28:21.036Z,5.73
2019-02-12T20:29:12.681Z,5.75
2019-02-12T20:30:04.928Z,5.77
2019-02-12T20:30:57.031Z,5.69
2019-02-12T20:31:49.185Z,5.65
2019-02-12T20:32:42.074Z,5.73
2019-02-12T20:33:34.025Z,5.62
2019-02-12T20:34:25.922Z,5.66
2019-02-12T20:35:18.357Z,5.59
2019-02-12T20:36:10.361Z,5.59
2019-02-12T20:37:02.347Z,5.62
2019-02-12T20:37:54.411Z,5.59
2019-02-12T20:38:47.747Z,5.65
2019-02-12T20:39:39.798Z,5.55
2019-02-12T20:40:32.808Z,5.47
2019-02-12T20:41:26.212Z,5.38
2019-02-12T20:42:19.148Z,5.49
2019-02-12T20:43:11.297Z,5.42
2019-02-12T20:44:03.685Z,5.47
2019-02-12T20:44:55.727Z,5.4
2019-02-12T20:45:47.754Z,5.42
2019-02-12T20:46:41.181Z,5.4
2019-02-12T20:47:33.038Z,5.41
2019-02-12T20:48:25.323Z,5.33
2019-02-12T20:49:17.457Z,5.32
2019-02-12T20:50:09.675Z,5.26
2019-02-12T20:51:02.706Z,5.33
2019-02-12T20:51:54.745Z,5.44
2019-02-12T20:52:47.633Z,5.32
2019-02-12T20:53:39.742Z,5.38
2019-02-12T20:54:31.848Z,5.38
2019-02-12T20:55:13.981Z,5.42
2019-02-12T20:55:54.467Z,5.33
2019-02-12T20:56:34.863Z,5.3
2019-02-12T20:57:15.496Z,5.35
2019-02-12T20:57:55.592Z,5.44
2019-02-12T20:58:36.062Z,5.47
2019-02-12T20:59:16.459Z,5.44
2019-02-12T20:59:56.921Z,5.52
2019-02-12T21:00:37.409Z,5.49
2019-02-12T21:01:17.773Z,5.56
2019-02-12T21:01:58.146Z,5.52
2019-02-12T21:02:38.478Z,5.52
2019-02-12T21:03:18.895Z,5.56
2019-02-12T21:03:59.340Z,5.56
2019-02-12T21:04:39.746Z,5.55
2019-02-12T21:05:20.106Z,5.45
2019-02-12T21:06:00.491Z,5.51
2019-02-12T21:06:40.972Z,5.48